Time;durP1;ratioP1;P1;durP2;ratioP2;P2;SDS_P1;SDS_P2;PMS_P1;PMS_P2;Temp;Humidity;BMP_temperature;BMP_pressure;BME280_temperature;BME280_humidity;BME280_pressure;Samples;Min_cycle;Max_cycle;Signal;HPM_P1;HPM_P2
2023/03/28 00:01:23;;;;;;;;;;;;;;;1.96;100.00;98672.94;5108670;27;20136;-60
2023/03/28 00:03:48;;;;;;;;;;;;;;;1.91;100.00;98676.25;5109221;27;20464;-61
2023/03/28 00:06:17;;;;;;;;;;;;;;;1.91;100.00;98677.06;5108680;27;20010;-60
2023/03/28 00:08:44;;;;;;;;;;;;;;;1.95;100.00;98681.38;5110130;27;20018;-60
2023/03/28 00:11:18;;;;;;;;;;;;;;;1.91;100.00;98678.78;5110481;27;19931;-59
2023/03/28 00:13:47;;;;;;;;;;;;;;;1.94;100.00;98681.34;5108817;27;20054;-60
2023/03/28 00:16:13;;;;;;;;;;;;;;;1.95;100.00;98672.94;5107416;27;20068;-59
2023/03/28 00:18:39;;;;;;;;;;;;;;;1.97;100.00;98681.38;5108612;27;19931;-59
2023/03/28 00:21:25;;;;;;;;;;;;;;;1.97;100.00;98691.50;5109712;27;19934;-60
2023/03/28 00:23:52;;;;;;;;;;;;;;;2.03;100.00;98692.47;5109831;27;20558;-60
2023/03/28 00:26:21;;;;;;;;;;;;;;;1.89;100.00;98690.53;5107733;27;19932;-59
2023/03/28 00:28:47;;;;;;;;;;;;;;;1.89;100.00;98685.47;5109109;27;19924;-58
2023/03/28 00:31:13;;;;;;;;;;;;;;;1.94;100.00;98687.25;5108529;27;19927;-60
2023/03/28 00:33:38;;;;;;;;;;;;;;;1.86;100.00;98696.41;5107643;27;19977;-59
2023/03/28 00:36:04;;;;;;;;;;;;;;;1.79;100.00;98697.97;5108241;27;19927;-59
2023/03/28 00:38:30;;;;;;;;;;;;;;;1.83;100.00;98703.91;5108291;27;20370;-60
2023/03/28 00:40:56;;;;;;;;;;;;;;;1.84;100.00;98703.94;5108389;27;19980;-60
2023/03/28 00:43:39;;;;;;;;;;;;;;;1.82;100.00;98708.09;5108034;27;20401;-59
2023/03/28 00:46:25;;;;;;;;;;;;;;;1.74;100.00;98712.19;5090582;27;20332;-61
2023/03/28 00:49:14;;;;;;;;;;;;;;;1.73;100.00;98702.94;5076630;27;20046;-62
2023/03/28 00:52:06;;;;;;;;;;;;;;;1.74;100.00;98719.78;5096685;27;20072;-60
2023/03/28 00:54:37;;;;;;;;;;;;;;;1.69;100.00;98721.41;5106810;27;20487;-60
2023/03/28 00:57:03;;;;;;;;;;;;;;;1.74;100.00;98724.81;5106851;27;20026;-60
2023/03/28 00:59:30;;;;;;;;;;;;;;;1.80;100.00;98727.47;5108529;27;19919;-60
2023/03/28 01:01:57;;;;;;;;;;;;;;;1.70;100.00;98728.13;5096458;28;19934;-60
2023/03/28 01:04:23;;;;;;;;;;;;;;;1.65;100.00;98722.16;5088947;28;20289;-60
2023/03/28 01:06:55;;;;;;;;;;;;;;;1.63;100.00;98716.22;5088378;28;19928;-60
2023/03/28 01:09:22;;;;;;;;;;;;;;;1.59;100.00;98721.19;5087538;28;20054;-59
2023/03/28 01:11:51;;;;;;;;;;;;;;;1.66;100.00;98721.31;5085978;28;19931;-59
2023/03/28 01:14:19;;;;;;;;;;;;;;;1.67;100.00;98734.81;5091212;28;19955;-59
2023/03/28 01:16:46;;;;;;;;;;;;;;;1.65;100.00;98721.31;5094875;28;19971;-59
2023/03/28 01:19:20;;;;;;;;;;;;;;;1.61;100.00;98727.97;5074237;28;19928;-59
2023/03/28 01:21:47;;;;;;;;;;;;;;;1.65;100.00;98721.31;5088787;28;19928;-62
2023/03/28 01:24:23;;;;;;;;;;;;;;;1.62;100.00;98719.56;5096845;28;19931;-62
2023/03/28 01:26:51;;;;;;;;;;;;;;;1.54;100.00;98716.06;5086381;28;19935;-60
2023/03/28 01:29:18;;;;;;;;;;;;;;;1.50;100.00;98723.53;5085777;28;19955;-59
2023/03/28 01:32:06;;;;;;;;;;;;;;;1.46;100.00;98710.00;5088282;28;20008;-60
2023/03/28 01:34:53;;;;;;;;;;;;;;;1.60;100.00;98722.91;5087311;28;20031;-60
2023/03/28 01:37:38;;;;;;;;;;;;;;;1.55;100.00;98717.75;5090089;28;19958;-59
2023/03/28 01:40:17;;;;;;;;;;;;;;;1.50;100.00;98721.88;5088152;28;19930;-59
2023/03/28 01:43:11;;;;;;;;;;;;;;;1.55;100.00;98732.91;5097889;28;19923;-60
2023/03/28 01:45:40;;;;;;;;;;;;;;;1.51;100.00;98726.09;5084358;28;19924;-59
2023/03/28 01:48:13;;;;;;;;;;;;;;;1.55;100.00;98737.97;5087648;28;19924;-60
2023/03/28 01:50:45;;;;;;;;;;;;;;;1.58;100.00;98735.50;5087558;28;19924;-60
2023/03/28 01:53:20;;;;;;;;;;;;;;;1.60;100.00;98741.44;5088179;28;19924;-59
2023/03/28 01:55:50;;;;;;;;;;;;;;;1.55;100.00;98729.53;5095364;28;19924;-59
2023/03/28 01:58:41;;;;;;;;;;;;;;;1.59;100.00;98738.88;5087174;28;19927;-60
2023/03/28 02:01:18;;;;;;;;;;;;;;;1.63;100.00;98749.06;5091040;28;20144;-59
2023/03/28 02:03:47;;;;;;;;;;;;;;;1.60;100.00;98748.16;5086629;28;19930;-61
2023/03/28 02:06:34;;;;;;;;;;;;;;;1.59;100.00;98759.94;5087400;28;20392;-59
2023/03/28 02:09:03;;;;;;;;;;;;;;;1.60;100.00;98761.66;5087869;28;19924;-60
2023/03/28 02:12:24;;;;;;;;;;;;;;;1.60;100.00;98770.91;5048208;28;20351;-60
2023/03/28 02:15:03;;;;;;;;;;;;;;;1.64;100.00;98763.41;5049659;28;20319;-59
2023/03/28 02:17:51;;;;;;;;;;;;;;;1.57;100.00;98756.53;5048358;28;19931;-61
2023/03/28 02:20:37;;;;;;;;;;;;;;;1.67;100.00;98763.47;5030846;28;20015;-62
2023/03/28 02:23:53;;;;;;;;;;;;;;;1.66;100.00;98759.22;5030265;28;19929;-59
2023/03/28 02:26:38;;;;;;;;;;;;;;;1.60;100.00;98766.72;5047612;28;19966;-58
2023/03/28 02:29:23;;;;;;;;;;;;;;;1.69;100.00;98753.38;5011434;28;19929;-58
2023/03/28 02:32:05;;;;;;;;;;;;;;;1.63;100.00;98761.69;5039032;28;20464;-58
2023/03/28 02:34:31;;;;;;;;;;;;;;;1.58;100.00;98778.44;5034210;28;19929;-59
2023/03/28 02:37:04;;;;;;;;;;;;;;;1.58;100.00;98758.22;5053030;28;20684;-58
2023/03/28 02:39:45;;;;;;;;;;;;;;;1.54;100.00;98763.19;5045067;28;19964;-58
2023/03/28 02:42:14;;;;;;;;;;;;;;;1.54;100.00;98768.25;5033691;28;19925;-56
2023/03/28 02:44:52;;;;;;;;;;;;;;;1.57;100.00;98781.78;5033050;28;20861;-57
2023/03/28 02:47:21;;;;;;;;;;;;;;;1.53;100.00;98784.25;5088334;28;20335;-58
2023/03/28 02:50:01;;;;;;;;;;;;;;;1.48;100.00;98775.72;5092703;28;20016;-59
2023/03/28 02:52:33;;;;;;;;;;;;;;;1.47;100.00;98784.97;5090442;28;19954;-59
2023/03/28 02:55:08;;;;;;;;;;;;;;;1.41;100.00;98776.41;5091052;28;19924;-65
2023/03/28 02:57:53;;;;;;;;;;;;;;;1.45;100.00;98790.81;5091541;28;19935;-59
2023/03/28 03:00:19;;;;;;;;;;;;;;;1.43;100.00;98802.56;5096475;27;19923;-58
2023/03/28 03:02:48;;;;;;;;;;;;;;;1.43;100.00;98785.75;5111307;27;20466;-58
2023/03/28 03:05:14;;;;;;;;;;;;;;;1.40;100.00;98788.19;5101159;27;20016;-59
2023/03/28 03:07:41;;;;;;;;;;;;;;;1.45;100.00;98800.91;5110323;27;19927;-59
2023/03/28 03:10:08;;;;;;;;;;;;;;;1.46;100.00;98792.50;5100091;27;19948;-58
2023/03/28 03:12:34;;;;;;;;;;;;;;;1.44;100.00;98795.03;5094255;27;19973;-58
2023/03/28 03:15:01;;;;;;;;;;;;;;;1.39;100.00;98791.56;5108496;27;19927;-66
2023/03/28 03:17:58;;;;;;;;;;;;;;;1.31;100.00;98793.94;5103122;27;19923;-62
2023/03/28 03:20:32;;;;;;;;;;;;;;;1.22;100.00;98791.22;5094115;27;19928;-60
2023/03/28 03:22:58;;;;;;;;;;;;;;;1.19;100.00;98797.88;5108565;27;19927;-52
2023/03/28 03:25:25;;;;;;;;;;;;;;;1.17;100.00;98790.28;5109849;27;19923;-58
2023/03/28 03:27:59;;;;;;;;;;;;;;;1.14;100.00;98794.41;5080807;27;19971;-59
2023/03/28 03:30:25;;;;;;;;;;;;;;;1.15;100.00;98791.03;5100943;27;20411;-58
2023/03/28 03:33:10;;;;;;;;;;;;;;;1.10;100.00;98777.50;5111254;27;19976;-56
2023/03/28 03:35:36;;;;;;;;;;;;;;;1.09;100.00;98793.44;5084271;27;19935;-59
2023/03/28 03:38:04;;;;;;;;;;;;;;;1.07;100.00;98793.41;5091789;27;19977;-59
2023/03/28 03:40:29;;;;;;;;;;;;;;;1.04;100.00;98810.16;5109167;27;20111;-58
2023/03/28 03:42:56;;;;;;;;;;;;;;;0.99;100.00;98778.94;5092206;27;19932;-58
2023/03/28 03:45:22;;;;;;;;;;;;;;;0.93;100.00;98785.53;5091881;27;20289;-59
2023/03/28 03:47:47;;;;;;;;;;;;;;;0.89;100.00;98809.00;5092056;27;19935;-56
2023/03/28 03:50:13;;;;;;;;;;;;;;;0.95;100.00;98797.34;5111627;27;19950;-57
2023/03/28 03:52:39;;;;;;;;;;;;;;;0.99;100.00;98801.66;5092191;27;20318;-58
2023/03/28 03:55:05;;;;;;;;;;;;;;;0.97;100.00;98796.59;5092610;27;20248;-58
2023/03/28 03:57:34;;;;;;;;;;;;;;;0.94;100.00;98796.50;5091301;27;19942;-58
2023/03/28 04:00:10;;;;;;;;;;;;;;;0.89;100.00;98790.53;5096551;28;19943;-57
2023/03/28 04:02:45;;;;;;;;;;;;;;;0.88;100.00;98807.34;5088486;28;20099;-58
2023/03/28 04:05:13;;;;;;;;;;;;;;;0.97;100.00;98796.59;5087935;28;19931;-58
2023/03/28 04:07:59;;;;;;;;;;;;;;;1.02;100.00;98786.59;5088024;28;19931;-57
2023/03/28 04:10:36;;;;;;;;;;;;;;;1.06;100.00;98809.38;5094631;28;20018;-59
2023/03/28 04:13:02;;;;;;;;;;;;;;;1.06;100.00;98790.88;5087349;28;19934;-57
2023/03/28 04:15:29;;;;;;;;;;;;;;;1.02;100.00;98792.47;5094557;28;19959;-60
2023/03/28 04:18:19;;;;;;;;;;;;;;;1.03;100.00;98806.78;5091207;28;19934;-56
2023/03/28 04:20:48;;;;;;;;;;;;;;;1.05;100.00;98817.78;5088429;28;20601;-58
2023/03/28 04:23:17;;;;;;;;;;;;;;;1.02;100.00;98805.06;5088579;28;20551;-62
2023/03/28 04:25:43;;;;;;;;;;;;;;;0.99;100.00;98817.63;5102489;27;20530;-58
2023/03/28 04:28:16;;;;;;;;;;;;;;;0.96;100.00;98820.09;5087120;28;20104;-60
2023/03/28 04:30:57;;;;;;;;;;;;;;;0.94;100.00;98819.22;5098744;28;19927;-59
2023/03/28 04:33:40;;;;;;;;;;;;;;;0.96;100.00;98826.81;5090156;28;19928;-58
2023/03/28 04:36:06;;;;;;;;;;;;;;;0.99;100.00;98842.03;5088612;28;19927;-60
2023/03/28 04:38:36;;;;;;;;;;;;;;;1.07;100.00;98838.00;5091786;28;19935;-59
2023/03/28 04:41:20;;;;;;;;;;;;;;;1.07;100.00;98845.56;5087392;28;20010;-57
2023/03/28 04:44:08;;;;;;;;;;;;;;;1.08;100.00;98838.03;5052980;28;19929;-61
2023/03/28 04:46:41;;;;;;;;;;;;;;;1.08;100.00;98877.56;5067698;28;19974;-59
2023/03/28 04:49:11;;;;;;;;;;;;;;;1.19;100.00;98841.63;5033708;28;19935;-58
2023/03/28 04:51:37;;;;;;;;;;;;;;;1.22;100.00;98861.91;5033079;28;19928;-60
2023/03/28 04:54:03;;;;;;;;;;;;;;;1.29;100.00;98822.47;5053753;28;20172;-59
2023/03/28 04:56:49;;;;;;;;;;;;;;;1.26;100.00;98840.97;5052034;28;20418;-60
2023/03/28 04:59:20;;;;;;;;;;;;;;;1.37;100.00;98846.22;5032486;28;19972;-59
2023/03/28 05:01:49;;;;;;;;;;;;;;;1.43;100.00;98864.03;5053581;28;19928;-59
2023/03/28 05:04:30;;;;;;;;;;;;;;;1.42;100.00;98867.38;5032865;28;19924;-60
2023/03/28 05:07:01;;;;;;;;;;;;;;;1.53;100.00;98860.88;5034821;28;19933;-66
2023/03/28 05:09:27;;;;;;;;;;;;;;;1.56;100.00;98865.16;5021203;28;19931;-59
2023/03/28 05:11:52;;;;;;;;;;;;;;;1.65;100.00;98868.72;5052747;28;19924;-60
2023/03/28 05:14:18;;;;;;;;;;;;;;;1.69;100.00;98857.84;5054332;28;20113;-61
2023/03/28 05:16:48;;;;;;;;;;;;;;;1.65;100.00;98886.41;5037821;28;20014;-62
2023/03/28 05:19:25;;;;;;;;;;;;;;;1.70;100.00;98864.56;5054079;28;20857;-62
2023/03/28 05:22:00;;;;;;;;;;;;;;;1.78;100.00;98860.53;5069753;28;19963;-64
2023/03/28 05:24:25;;;;;;;;;;;;;;;1.73;100.00;98873.91;5072381;28;20026;-60
2023/03/28 05:26:52;;;;;;;;;;;;;;;1.76;100.00;98862.19;5071971;28;19928;-61
2023/03/28 05:29:24;;;;;;;;;;;;;;;1.74;100.00;98866.34;5072850;28;19928;-58
2023/03/28 05:31:50;;;;;;;;;;;;;;;1.81;100.00;98895.13;5074329;28;19935;-57
2023/03/28 05:34:24;;;;;;;;;;;;;;;1.84;100.00;98901.09;5090682;28;20028;-58
2023/03/28 05:36:50;;;;;;;;;;;;;;;1.86;100.00;98906.19;5056880;28;19928;-59
2023/03/28 05:39:28;;;;;;;;;;;;;;;1.96;100.00;98886.97;5090333;28;19928;-58
2023/03/28 05:42:02;;;;;;;;;;;;;;;2.03;100.00;98882.09;5089019;28;19931;-61
2023/03/28 05:44:28;;;;;;;;;;;;;;;1.99;100.00;98913.19;5092198;28;19928;-60
2023/03/28 05:47:25;;;;;;;;;;;;;;;2.05;100.00;98898.13;5092383;28;20307;-57
2023/03/28 05:49:51;;;;;;;;;;;;;;;2.09;100.00;98888.91;5093273;28;20104;-60
2023/03/28 05:52:17;;;;;;;;;;;;;;;2.14;100.00;98888.19;5058543;28;19965;-59
2023/03/28 05:54:45;;;;;;;;;;;;;;;2.14;100.00;98893.25;5095670;28;19967;-59
2023/03/28 05:57:14;;;;;;;;;;;;;;;2.18;100.00;98889.94;5084941;28;20240;-59
2023/03/28 05:59:39;;;;;;;;;;;;;;;2.22;100.00;98903.50;5077299;28;20086;-59
2023/03/28 06:02:14;;;;;;;;;;;;;;;2.31;100.00;98888.47;5092697;27;20363;-59
2023/03/28 06:04:41;;;;;;;;;;;;;;;2.31;100.00;98891.00;5089850;27;19923;-59
2023/03/28 06:07:11;;;;;;;;;;;;;;;2.32;100.00;98902.00;5094293;27;19924;-59
2023/03/28 06:09:37;;;;;;;;;;;;;;;2.44;100.00;98902.19;5091482;27;20221;-59
2023/03/28 06:12:03;;;;;;;;;;;;;;;2.53;100.00;98902.38;5100438;27;20535;-60
2023/03/28 06:14:29;;;;;;;;;;;;;;;2.56;100.00;98905.78;5094643;27;20809;-59
2023/03/28 06:16:56;;;;;;;;;;;;;;;2.64;100.00;98916.91;5096521;27;19934;-59
2023/03/28 06:19:24;;;;;;;;;;;;;;;2.58;100.00;98896.56;5093970;27;19992;-59
2023/03/28 06:21:52;;;;;;;;;;;;;;;2.40;100.00;98908.03;5093652;27;19923;-59
2023/03/28 06:24:18;;;;;;;;;;;;;;;2.37;100.00;98903.78;5098648;27;19935;-58
2023/03/28 06:26:44;;;;;;;;;;;;;;;2.41;100.00;98900.47;5101848;27;19930;-59
2023/03/28 06:29:14;;;;;;;;;;;;;;;2.50;100.00;98917.50;5096426;27;19935;-60
2023/03/28 06:31:41;;;;;;;;;;;;;;;2.60;100.00;98924.41;5092422;27;19934;-60
2023/03/28 06:34:07;;;;;;;;;;;;;;;2.74;100.00;98943.22;5093876;27;19980;-59
2023/03/28 06:36:41;;;;;;;;;;;;;;;2.79;100.00;98953.44;5097338;27;19970;-58
2023/03/28 06:39:08;;;;;;;;;;;;;;;2.85;100.00;98930.72;5106896;27;20342;-59
2023/03/28 06:41:33;;;;;;;;;;;;;;;2.90;100.00;98934.19;5097355;27;19928;-59
2023/03/28 06:43:59;;;;;;;;;;;;;;;2.80;100.00;98922.22;5077983;27;19938;-60
2023/03/28 06:46:45;;;;;;;;;;;;;;;2.97;100.00;98941.06;5093017;27;20557;-60
2023/03/28 06:49:11;;;;;;;;;;;;;;;2.83;100.00;98924.81;5108613;27;19996;-59
2023/03/28 06:52:03;;;;;;;;;;;;;;;2.92;100.00;98927.47;5038387;28;20400;-59
2023/03/28 06:54:29;;;;;;;;;;;;;;;2.88;100.00;98936.72;5021760;28;20572;-59
2023/03/28 06:56:54;;;;;;;;;;;;;;;2.98;98.25;98932.63;5037861;28;19959;-59
2023/03/28 06:59:20;;;;;;;;;;;;;;;3.00;96.15;98946.19;5021253;28;20439;-59
2023/03/28 07:01:51;;;;;;;;;;;;;;;3.08;95.04;98916.75;5019250;28;19929;-59
2023/03/28 07:04:23;;;;;;;;;;;;;;;3.05;92.96;98929.38;5019007;28;20187;-63
2023/03/28 07:06:49;;;;;;;;;;;;;;;2.96;92.06;98926.69;5037807;28;19929;-58
2023/03/28 07:09:14;;;;;;;;;;;;;;;3.00;90.98;98916.66;5005492;28;19935;-60
2023/03/28 07:11:47;;;;;;;;;;;;;;;2.87;89.78;98927.41;5020877;28;19975;-59
2023/03/28 07:14:13;;;;;;;;;;;;;;;2.92;91.39;98945.22;5037452;28;20024;-58
2023/03/28 07:16:38;;;;;;;;;;;;;;;2.93;92.33;98935.09;5037474;28;20011;-59
2023/03/28 07:19:04;;;;;;;;;;;;;;;3.07;90.85;98941.22;5017367;28;20043;-58
2023/03/28 07:21:33;;;;;;;;;;;;;;;3.22;87.24;98931.31;5034026;28;20364;-57
2023/03/28 07:24:01;;;;;;;;;;;;;;;3.35;84.41;98929.00;5018216;28;19936;-59
2023/03/28 07:26:34;;;;;;;;;;;;;;;3.29;82.52;98932.28;5034804;28;20500;-58
2023/03/28 07:29:00;;;;;;;;;;;;;;;3.28;84.11;98957.56;5068305;28;19935;-59
2023/03/28 07:31:26;;;;;;;;;;;;;;;3.30;86.07;99022.66;5074014;28;20355;-59
2023/03/28 07:33:54;;;;;;;;;;;;;;;3.27;86.22;98949.13;5076270;28;20019;-58
2023/03/28 07:36:20;;;;;;;;;;;;;;;3.30;88.27;98974.53;5095362;28;20522;-59
2023/03/28 07:38:49;;;;;;;;;;;;;;;3.32;83.85;99007.47;5081033;28;20306;-59
2023/03/28 07:41:16;;;;;;;;;;;;;;;3.29;85.04;98955.06;5062540;28;19974;-60
2023/03/28 07:43:42;;;;;;;;;;;;;;;3.25;85.00;98972.75;5091975;28;20340;-60
2023/03/28 07:46:09;;;;;;;;;;;;;;;3.23;85.58;99021.69;5080562;28;19930;-59
2023/03/28 07:48:36;;;;;;;;;;;;;;;3.26;87.79;98990.50;5094128;28;20474;-60
2023/03/28 07:51:05;;;;;;;;;;;;;;;3.21;88.19;98992.09;5079995;28;20298;-58
2023/03/28 07:53:30;;;;;;;;;;;;;;;3.28;89.21;98986.31;5092792;28;20387;-60
2023/03/28 07:55:56;;;;;;;;;;;;;;;3.35;87.73;98977.13;5091421;28;19976;-58
2023/03/28 07:58:27;;;;;;;;;;;;;;;3.55;87.75;98975.72;5080554;28;19930;-59
2023/03/28 08:01:02;;;;;;;;;;;;;;;3.59;87.24;98980.88;5080521;28;19945;-60
2023/03/28 08:03:40;;;;;;;;;;;;;;;4.08;89.50;98978.97;5096799;28;19969;-59
2023/03/28 08:06:07;;;;;;;;;;;;;;;4.25;85.47;99005.38;5084887;28;19932;-60
2023/03/28 08:08:36;;;;;;;;;;;;;;;3.96;84.89;99002.50;5090567;28;19931;-60
2023/03/28 08:11:12;;;;;;;;;;;;;;;3.74;84.71;98975.13;5087053;28;19928;-58
2023/03/28 08:13:37;;;;;;;;;;;;;;;3.90;84.51;98976.22;5089237;28;20004;-55
2023/03/28 08:16:09;;;;;;;;;;;;;;;3.82;83.55;98973.56;5088562;28;19961;-60
2023/03/28 08:18:35;;;;;;;;;;;;;;;3.91;84.47;98973.69;5097087;28;19928;-57
2023/03/28 08:21:01;;;;;;;;;;;;;;;4.08;84.22;99005.19;5085796;28;19988;-57
2023/03/28 08:23:30;;;;;;;;;;;;;;;4.28;82.10;98996.97;5087138;28;20477;-56
2023/03/28 08:26:22;;;;;;;;;;;;;;;4.30;84.36;98996.16;5016788;28;20460;-58
2023/03/28 08:28:53;;;;;;;;;;;;;;;4.03;81.56;98998.38;4999603;28;19929;-56
2023/03/28 08:31:22;;;;;;;;;;;;;;;3.85;83.34;98987.97;4999297;28;19984;-58
2023/03/28 08:33:51;;;;;;;;;;;;;;;3.94;84.99;99010.94;4999809;28;20406;-57
2023/03/28 08:36:21;;;;;;;;;;;;;;;3.86;86.29;99008.25;5000123;28;20540;-57
2023/03/28 08:38:50;;;;;;;;;;;;;;;4.02;86.51;98991.59;5015115;28;19936;-57
2023/03/28 08:41:37;;;;;;;;;;;;;;;4.34;83.50;98997.03;4999860;28;20464;-57
2023/03/28 08:44:15;;;;;;;;;;;;;;;4.14;85.40;99002.75;4998353;28;20458;-59
2023/03/28 08:46:43;;;;;;;;;;;;;;;4.02;86.96;99005.13;4990721;28;20235;-57
2023/03/28 08:49:18;;;;;;;;;;;;;;;4.22;84.43;99010.44;4990680;28;20506;-56
2023/03/28 08:51:46;;;;;;;;;;;;;;;4.14;81.40;99002.75;4998935;28;19924;-56
2023/03/28 08:54:16;;;;;;;;;;;;;;;4.34;85.46;99010.56;4996532;28;20022;-59
2023/03/28 08:56:44;;;;;;;;;;;;;;;3.88;84.92;99048.88;4999725;28;19987;-55
2023/03/28 08:59:11;;;;;;;;;;;;;;;3.88;85.86;99013.38;4991279;28;19932;-56
2023/03/28 09:01:38;;;;;;;;;;;;;;;4.20;85.36;99016.34;4974996;28;19925;-58
2023/03/28 09:04:03;;;;;;;;;;;;;;;4.57;85.10;99024.41;5056363;28;20449;-57
2023/03/28 09:06:42;;;;;;;;;;;;;;;4.20;81.16;99021.41;5071272;28;20840;-58
2023/03/28 09:09:12;;;;;;;;;;;;;;;4.20;85.54;99022.25;5073903;28;20013;-59
2023/03/28 09:11:59;;;;;;;;;;;;;;;4.30;86.18;99024.06;5071631;28;19954;-58
2023/03/28 09:14:31;;;;;;;;;;;;;;;4.13;90.38;99040.75;5074488;28;19927;-57
2023/03/28 09:16:58;;;;;;;;;;;;;;;4.08;92.07;99037.31;5082457;28;20428;-58
2023/03/28 09:19:33;;;;;;;;;;;;;;;4.10;93.38;99043.28;5077786;28;20030;-60
2023/03/28 09:22:48;;;;;;;;;;;;;;;4.32;90.83;99037.66;5085602;28;20402;-59
2023/03/28 09:25:31;;;;;;;;;;;;;;;4.27;89.83;99030.78;5064404;28;20358;-59
2023/03/28 09:28:02;;;;;;;;;;;;;;;3.89;94.83;99051.44;5074262;28;19939;-59
2023/03/28 09:30:32;;;;;;;;;;;;;;;4.10;93.77;99050.88;5074881;28;19924;-59
2023/03/28 09:32:59;;;;;;;;;;;;;;;4.52;93.19;99026.03;5073023;28;19971;-60
2023/03/28 09:35:27;;;;;;;;;;;;;;;4.67;89.03;99024.50;5074028;28;19928;-60
2023/03/28 09:37:58;;;;;;;;;;;;;;;4.50;83.53;99045.47;5083547;28;19949;-59
2023/03/28 09:40:26;;;;;;;;;;;;;;;4.23;89.80;99070.50;5074678;28;19947;-60
2023/03/28 09:43:19;;;;;;;;;;;;;;;3.06;100.00;99124.41;5088929;28;19939;-58
2023/03/28 09:45:59;;;;;;;;;;;;;;;0.72;100.00;99157.66;5073398;28;20323;-57
2023/03/28 09:48:55;;;;;;;;;;;;;;;0.11;100.00;99165.94;5075411;28;19924;-60
2023/03/28 09:51:24;;;;;;;;;;;;;;;-142.25;100.00;58004.16;5070046;28;20332;-58
2023/03/28 09:53:51;;;;;;;;;;;;;;;-142.25;100.00;58004.16;5074412;28;19923;-60
2023/03/28 09:56:17;;;;;;;;;;;;;;;-142.25;100.00;58004.16;5073801;28;19986;-62
2023/03/28 09:58:53;;;;;;;;;;;;;;;-142.25;100.00;58004.16;5072803;28;20017;-59
2023/03/28 10:01:44;;;;;;;;;;;;;;;-142.25;100.00;58004.16;5069792;28;20417;-58
2023/03/28 10:04:29;;;;;;;;;;;;;;;-142.25;100.00;58004.16;5088829;28;20508;-60
2023/03/28 10:07:15;;;;;;;;;;;;;;;-142.25;100.00;58004.16;5089854;28;19966;-59
2023/03/28 10:09:50;;;;;;;;;;;;;;;-142.25;100.00;58004.16;5071903;28;20290;-59
2023/03/28 10:12:18;;;;;;;;;;;;;;;-142.25;100.00;58004.16;5072328;28;20394;-59
2023/03/28 10:14:47;;;;;;;;;;;;;;;-142.25;100.00;58004.16;5089201;28;19963;-59
2023/03/28 10:17:42;;;;;;;;;;;;;;;-142.25;100.00;58004.16;4996640;28;19964;-59
2023/03/28 10:20:14;;;;;;;;;;;;;;;-142.25;100.00;58004.16;4964180;28;20049;-59
2023/03/28 10:22:40;;;;;;;;;;;;;;;-142.25;100.00;58004.16;4997067;28;20490;-59
2023/03/28 10:25:07;;;;;;;;;;;;;;;-142.25;100.00;58004.16;4978498;28;20597;-58
2023/03/28 10:27:34;;;;;;;;;;;;;;;-142.25;100.00;58004.16;4963342;28;20426;-58
2023/03/28 10:30:17;;;;;;;;;;;;;;;-142.25;100.00;58004.16;4996650;28;19948;-61
2023/03/28 10:32:43;;;;;;;;;;;;;;;-142.25;100.00;58004.16;4979592;28;19929;-59
2023/03/28 10:35:17;;;;;;;;;;;;;;;-142.25;100.00;58004.16;4942404;28;19973;-59
2023/03/28 10:37:47;;;;;;;;;;;;;;;-142.25;100.00;58004.16;4943415;28;19948;-57
2023/03/28 10:40:28;;;;;;;;;;;;;;;-142.25;100.00;58004.16;4944016;28;19981;-58
2023/03/28 10:42:57;;;;;;;;;;;;;;;-142.25;100.00;58004.16;4958075;28;20052;-59
2023/03/28 10:45:45;;;;;;;;;;;;;;;-142.25;100.00;58004.16;4955456;28;19969;-57
2023/03/28 10:48:19;;;;;;;;;;;;;;;-142.25;100.00;58004.16;4941533;28;19926;-58
2023/03/28 10:50:53;;;;;;;;;;;;;;;-142.25;100.00;58004.16;4957263;28;19992;-58
2023/03/28 10:53:25;;;;;;;;;;;;;;;-142.25;100.00;58004.16;4952139;28;20357;-58
2023/03/28 10:56:13;;;;;;;;;;;;;;;-142.25;100.00;58004.16;5030084;28;19931;-58
2023/03/28 10:58:57;;;;;;;;;;;;;;;-142.25;100.00;58004.16;5035863;28;19929;-58
2023/03/28 11:01:39;;;;;;;;;;;;;;;-142.25;100.00;58004.16;5057130;28;19931;-60
2023/03/28 11:04:15;;;;;;;;;;;;;;;-142.25;100.00;58004.16;5056615;28;19931;-59
2023/03/28 11:06:53;;;;;;;;;;;;;;;-142.25;100.00;58004.16;5050351;28;20015;-58
2023/03/28 11:09:46;;;;;;;;;;;;;;;-142.25;100.00;58004.16;5062952;28;19932;-59
2023/03/28 11:12:40;;;;;;;;;;;;;;;-142.25;100.00;58004.16;5048212;28;19924;-59
2023/03/28 11:15:08;;;;;;;;;;;;;;;-142.25;100.00;58004.16;5044768;28;20455;-58
2023/03/28 11:17:51;;;;;;;;;;;;;;;-142.25;100.00;58004.16;5057326;28;20051;-59
2023/03/28 11:20:25;;;;;;;;;;;;;;;-142.25;100.00;58004.16;5046921;28;19929;-59
2023/03/28 11:23:08;;;;;;;;;;;;;;;-142.25;100.00;58004.16;5045158;28;19931;-60
2023/03/28 11:25:50;;;;;;;;;;;;;;;-142.25;100.00;58004.16;5047633;28;19924;-65
2023/03/28 11:28:53;;;;;;;;;;;;;;;-142.25;100.00;58004.16;5049622;28;19950;-58
2023/03/28 11:31:30;;;;;;;;;;;;;;;-142.25;100.00;58004.16;5055128;28;19932;-58
2023/03/28 11:33:58;;;;;;;;;;;;;;;-142.25;100.00;58004.16;5052404;28;20162;-59
2023/03/28 11:36:31;;;;;;;;;;;;;;;-142.25;100.00;58004.16;5050270;28;19925;-58
2023/03/28 11:39:20;;;;;;;;;;;;;;;-142.25;100.00;58004.16;5047784;28;19968;-59
2023/03/28 11:41:47;;;;;;;;;;;;;;;-142.25;100.00;58004.16;4993425;28;19975;-60
2023/03/28 11:44:32;;;;;;;;;;;;;;;-142.25;100.00;58004.16;4977429;28;20080;-58
2023/03/28 11:47:03;;;;;;;;;;;;;;;-142.25;100.00;58004.16;4997290;28;19925;-60
2023/03/28 11:49:35;;;;;;;;;;;;;;;-142.25;100.00;58004.16;4979126;28;20024;-59
2023/03/28 11:52:15;;;;;;;;;;;;;;;-142.25;100.00;58004.16;4971369;28;19925;-61
2023/03/28 11:54:48;;;;;;;;;;;;;;;-142.25;100.00;58004.16;4972795;28;19958;-60
2023/03/28 11:57:16;;;;;;;;;;;;;;;-142.25;100.00;58004.16;4972597;28;19926;-61
2023/03/28 11:59:53;;;;;;;;;;;;;;;-142.25;100.00;58004.16;4974392;28;19925;-60
2023/03/28 12:02:28;;;;;;;;;;;;;;;-142.25;100.00;58004.16;4996999;28;19952;-60
2023/03/28 12:05:06;;;;;;;;;;;;;;;-142.25;100.00;58004.16;4997870;28;19925;-61
2023/03/28 12:07:42;;;;;;;;;;;;;;;-142.25;100.00;58004.16;4996652;28;19961;-59
2023/03/28 12:10:38;;;;;;;;;;;;;;;-142.25;100.00;58004.16;4992735;28;19968;-61
2023/03/28 12:13:25;;;;;;;;;;;;;;;-142.25;100.00;58004.16;4995327;28;19925;-59
2023/03/28 12:16:02;;;;;;;;;;;;;;;-142.25;100.00;58004.16;4975158;28;19964;-60
2023/03/28 12:18:45;;;;;;;3.63;2.40;;;;;;;3.98;nan;99147.09;4987441;28;20419;-59
2023/03/28 12:21:42;;;;;;;2.63;1.70;;;;;;;4.02;nan;99153.94;5013516;28;20033;-59
2023/03/28 12:24:34;;;;;;;2.37;1.30;;;;;;;3.67;nan;99174.50;5027748;28;20044;-58
2023/03/28 12:27:24;;;;;;;2.15;1.52;;;;;;;3.52;nan;99176.75;5030737;28;20434;-59
2023/03/28 12:30:04;;;;;;;1.90;1.67;;;;;;;3.81;nan;99159.53;5035700;28;20056;-59
2023/03/28 12:32:35;;;;;;;28.90;16.07;;;;;;;3.83;nan;99142.63;5041253;28;20048;-58
2023/03/28 12:35:14;;;;;;;463.57;290.27;;;;;;;4.03;nan;99131.09;5031260;28;20036;-60
2023/03/28 12:38:34;;;;;;;458.90;266.27;;;;;;;4.18;nan;99158.41;5026517;28;20049;-59
2023/03/28 12:41:18;;;;;;;1.60;1.50;;;;;;;4.12;nan;99183.66;5026902;28;20179;-59
2023/03/28 12:43:54;;;;;;;308.80;104.30;;;;;;;3.79;nan;99189.06;5043721;28;20144;-59
2023/03/28 12:46:50;;;;;;;10.90;4.43;;;;;;;3.50;nan;99205.44;5030285;28;20067;-59
2023/03/28 12:49:38;;;;;;;326.40;134.40;;;;;;;3.09;nan;99222.41;5029203;28;20571;-59
2023/03/28 12:52:16;;;;;;;388.03;139.63;;;;;;;2.86;nan;99232.06;5021539;28;20457;-58
2023/03/28 12:54:55;;;;;;;379.25;127.38;;;;;;;2.30;nan;99198.75;5018135;28;20055;-58
2023/03/28 12:57:41;;;;;;;396.67;131.90;;;;;;;2.47;nan;99229.50;5023317;28;20045;-60
2023/03/28 13:01:26;;;;;;;379.80;126.43;;;;;;;-142.25;100.00;58004.16;5032987;28;20851;-59
2023/03/28 13:05:02;;;;;;;97.73;50.37;;;;;;;-142.25;100.00;58004.16;4995709;28;21300;-59
2023/03/28 13:07:52;;;;;;;171.73;88.40;;;;;;;-142.25;100.00;58004.16;4979034;28;20841;-59
2023/03/28 13:10:45;;;;;;;364.87;118.73;;;;;;;-142.25;100.00;58004.16;4995347;28;20046;-59
2023/03/28 13:13:32;;;;;;;421.93;252.70;;;;;;;-142.25;100.00;58004.16;4994618;28;20100;-58
2023/03/28 13:16:41;;;;;;;400.87;156.03;;;;;;;-142.25;100.00;58004.16;4997773;28;20534;-59